Wildomar, California
Current Conditions -  °F | °C
As of 2:55 PM on Thursday 18 Dec 2014 (Local Time) from KF70 Reporting Station
Broken Clouds Broken Clouds  
Wind Chill: 59°   Ceiling: 3500
Heat Index: 59°   Visibility: 10mi
Dew Point: 45°   Wind: 7mph
Humidity: 59%   Direction: 170°S
Pressure: 30.14"   Gusts: NA
Location:  33.61°N, 117.26°W
Report Text: KF70 182255Z AUTO 17006KT 10SM BKN035 BKN041 15/07 A3014 RMK AO1
Loading
Personal Weather Stations






























Interactive Weather Map New forecast layout! Learn more

10-Day Weather Forecast

Advertisements
Track Severe Weather on mobile